Time;durP1;ratioP1;P1;durP2;ratioP2;P2;SDS_P1;SDS_P2;PMS_P1;PMS_P2;Temp;Humidity;BMP_temperature;BMP_pressure;BME280_temperature;BME280_humidity;BME280_pressure;Samples;Min_cycle;Max_cycle;Signal;HPM_P1;HPM_P2
2022/10/05 00:02:19;;;;;;;13.27;12.47;;;7.40;99.90;;;;;;5115806;28;20168;-81
2022/10/05 00:04:55;;;;;;;12.37;11.57;;;7.40;99.90;;;;;;5097661;28;20195;-81
2022/10/05 00:07:23;;;;;;;15.67;14.50;;;7.40;99.90;;;;;;5097475;28;20202;-81
2022/10/05 00:09:55;;;;;;;13.07;12.17;;;7.40;99.90;;;;;;5080057;28;20184;-81
2022/10/05 00:12:22;;;;;;;12.60;11.70;;;7.40;99.90;;;;;;5077308;28;20263;-81
2022/10/05 00:14:51;;;;;;;16.30;15.30;;;7.40;99.90;;;;;;5077137;28;20257;-81
2022/10/05 00:17:22;;;;;;;10.17;9.50;;;7.40;99.90;;;;;;5094747;28;20169;-81
2022/10/05 00:19:52;;;;;;;12.73;11.77;;;7.40;99.90;;;;;;5099936;28;20246;-82
2022/10/05 00:22:20;;;;;;;13.90;12.97;;;7.40;99.90;;;;;;5098769;28;20168;-82
2022/10/05 00:24:49;;;;;;;14.37;13.40;;;7.30;99.90;;;;;;5096144;28;20219;-81
2022/10/05 00:27:30;;;;;;;14.40;13.40;;;7.40;99.90;;;;;;5106259;28;20192;-82
2022/10/05 00:29:58;;;;;;;14.93;14.10;;;7.40;99.90;;;;;;5078283;28;20271;-81
2022/10/05 00:32:24;;;;;;;15.07;14.17;;;7.40;99.90;;;;;;5095422;28;20551;-82
2022/10/05 00:34:50;;;;;;;15.33;14.23;;;7.30;99.90;;;;;;5077158;28;20209;-82
2022/10/05 00:37:16;;;;;;;13.40;12.50;;;7.30;99.90;;;;;;5096663;28;20180;-81
2022/10/05 00:39:42;;;;;;;12.53;11.80;;;7.30;99.90;;;;;;5096860;28;20757;-82
2022/10/05 00:42:25;;;;;;;13.47;12.47;;;7.30;99.90;;;;;;5115389;28;20198;-82
2022/10/05 00:44:58;;;;;;;12.03;11.00;;;7.20;99.90;;;;;;5115691;28;20190;-82
2022/10/05 00:47:59;;;;;;;12.53;11.63;;;7.20;99.90;;;;;;5114203;28;20177;-81
2022/10/05 00:50:31;;;;;;;10.70;9.97;;;7.10;99.90;;;;;;5025087;28;20641;-81
2022/10/05 00:53:23;;;;;;;12.50;11.70;;;7.10;99.90;;;;;;5102944;28;20184;-80
2022/10/05 00:55:52;;;;;;;14.90;13.90;;;7.00;99.90;;;;;;5097519;28;20704;-82
2022/10/05 00:58:35;;;;;;;12.23;10.37;;;7.10;99.90;;;;;;5076962;28;20677;-82
2022/10/05 01:01:10;;;;;;;12.63;11.80;;;7.10;99.90;;;;;;5077101;28;20211;-83
2022/10/05 01:03:52;;;;;;;13.57;12.67;;;7.10;99.90;;;;;;5085190;28;20207;-83
2022/10/05 01:06:38;;;;;;;12.17;11.33;;;7.00;99.90;;;;;;5085749;28;20657;-83
2022/10/05 01:09:09;;;;;;;11.83;11.03;;;7.10;99.90;;;;;;5100521;28;20220;-83
2022/10/05 01:11:56;;;;;;;11.07;10.13;;;7.10;99.90;;;;;;5102219;28;20186;-83
2022/10/05 01:14:45;;;;;;;12.73;11.73;;;7.00;99.90;;;;;;5119326;28;20744;-83
2022/10/05 01:17:40;;;;;;;11.00;10.20;;;7.00;99.90;;;;;;5100436;28;20221;-83
2022/10/05 01:20:12;;;;;;;10.77;10.17;;;7.00;99.90;;;;;;5091350;28;20188;-83
2022/10/05 01:23:02;;;;;;;12.73;11.80;;;7.00;99.90;;;;;;5083157;28;20189;-82
2022/10/05 01:25:37;;;;;;;12.90;11.80;;;7.00;99.90;;;;;;5077397;28;20188;-83
2022/10/05 01:28:13;;;;;;;13.73;10.50;;;7.00;99.90;;;;;;5094796;28;20204;-82
2022/10/05 01:30:51;;;;;;;12.70;11.33;;;7.00;99.90;;;;;;5095716;28;20180;-82
2022/10/05 01:33:47;;;;;;;11.37;10.30;;;7.10;99.90;;;;;;5115298;28;20187;-83
2022/10/05 01:36:33;;;;;;;20.90;11.33;;;7.10;99.90;;;;;;5112174;28;20298;-83
2022/10/05 01:39:15;;;;;;;33.83;11.07;;;7.20;99.90;;;;;;5098698;28;20827;-82
2022/10/05 01:42:00;;;;;;;30.77;11.80;;;7.30;99.90;;;;;;5079933;28;20191;-83
2022/10/05 01:44:32;;;;;;;34.43;15.23;;;7.30;99.90;;;;;;5086804;28;20172;-84
2022/10/05 01:47:06;;;;;;;38.57;16.27;;;7.40;99.90;;;;;;5111954;28;20184;-80
2022/10/05 01:49:59;;;;;;;34.30;12.33;;;7.40;99.90;;;;;;5119142;28;20215;-82
2022/10/05 01:52:34;;;;;;;32.37;11.90;;;7.40;99.90;;;;;;5080880;28;20587;-82
2022/10/05 01:55:24;;;;;;;23.30;11.63;;;7.30;99.90;;;;;;5080225;28;20208;-82
2022/10/05 01:58:05;;;;;;;26.03;11.00;;;7.30;99.90;;;;;;5097986;28;20292;-83
2022/10/05 02:00:52;;;;;;;25.80;10.67;;;7.30;99.90;;;;;;5086366;28;20291;-82
2022/10/05 02:03:27;;;;;;;14.50;10.97;;;7.30;99.90;;;;;;5081253;28;20165;-83
2022/10/05 02:06:21;;;;;;;13.57;9.30;;;7.40;99.90;;;;;;5082984;28;20282;-80
2022/10/05 02:08:52;;;;;;;17.17;9.63;;;7.30;99.90;;;;;;5070357;28;20221;-82
2022/10/05 02:11:19;;;;;;;22.60;10.47;;;7.30;99.90;;;;;;5079118;28;20188;-83
2022/10/05 02:13:53;;;;;;;18.40;10.20;;;7.40;99.90;;;;;;5083211;28;20645;-82
2022/10/05 02:16:57;;;;;;;21.40;10.03;;;7.40;99.90;;;;;;5091387;28;20180;-82
2022/10/05 02:19:41;;;;;;;14.87;8.93;;;7.40;99.90;;;;;;5074908;28;20289;-82
2022/10/05 02:22:16;;;;;;;18.07;11.70;;;7.40;99.90;;;;;;5078520;28;20183;-82
2022/10/05 02:24:57;;;;;;;33.90;30.53;;;7.30;99.90;;;;;;5079334;28;20181;-82
2022/10/05 02:27:36;;;;;;;36.07;28.90;;;7.30;99.90;;;;;;5095586;28;20272;-82
2022/10/05 02:30:06;;;;;;;37.37;30.33;;;7.30;99.90;;;;;;5089650;28;20187;-82
2022/10/05 02:32:41;;;;;;;56.90;18.80;;;7.30;99.90;;;;;;5079346;28;20555;-83
2022/10/05 02:35:16;;;;;;;52.47;37.30;;;7.20;99.90;;;;;;5092698;28;20196;-84
2022/10/05 02:38:13;;;;;;;46.53;35.60;;;7.30;99.90;;;;;;5095841;28;20203;-82
2022/10/05 02:40:47;;;;;;;41.87;38.53;;;7.30;99.90;;;;;;5100758;28;20188;-82
2022/10/05 02:43:22;;;;;;;57.40;40.83;;;7.40;99.90;;;;;;5104179;27;20176;-83
2022/10/05 02:45:57;;;;;;;62.60;48.87;;;7.40;99.90;;;;;;5139018;27;20188;-83
2022/10/05 02:48:47;;;;;;;48.80;42.70;;;7.40;99.90;;;;;;5120738;27;20249;-83
2022/10/05 02:51:26;;;;;;;47.63;43.63;;;7.40;99.90;;;;;;5094911;28;20200;-82
2022/10/05 02:54:18;;;;;;;56.57;50.97;;;7.40;99.90;;;;;;5094704;28;20588;-82
2022/10/05 02:57:15;;;;;;;48.77;32.70;;;7.50;99.90;;;;;;5072246;28;20197;-83
2022/10/05 02:59:51;;;;;;;56.67;36.30;;;7.40;99.90;;;;;;5095137;28;20200;-81
2022/10/05 03:02:22;;;;;;;63.27;49.80;;;7.50;99.90;;;;;;5084365;28;20181;-83
2022/10/05 03:05:06;;;;;;;62.53;56.30;;;7.50;99.90;;;;;;5102072;28;20187;-83
2022/10/05 03:08:01;;;;;;;50.30;45.73;;;7.50;99.90;;;;;;5081974;28;20221;-83
2022/10/05 03:10:52;;;;;;;37.77;31.83;;;7.40;99.90;;;;;;5076891;28;20775;-81
2022/10/05 03:13:28;;;;;;;51.83;45.87;;;7.50;99.90;;;;;;5079121;28;20181;-81
2022/10/05 03:16:11;;;;;;;69.20;61.03;;;7.50;99.90;;;;;;5080081;28;20223;-81
2022/10/05 03:18:47;;;;;;;57.40;52.20;;;7.60;99.90;;;;;;5097544;28;20252;-81
2022/10/05 03:21:25;;;;;;;55.00;49.37;;;7.60;99.90;;;;;;5118411;28;20199;-81
2022/10/05 03:24:17;;;;;;;57.90;44.20;;;7.70;99.90;;;;;;5098529;28;20210;-81
2022/10/05 03:27:16;;;;;;;44.13;40.33;;;7.70;99.90;;;;;;5088418;28;20204;-81
2022/10/05 03:30:17;;;;;;;56.37;45.17;;;7.80;99.90;;;;;;5095050;28;20201;-81
2022/10/05 03:32:53;;;;;;;37.73;14.73;;;7.80;99.90;;;;;;5038690;28;20258;-82
2022/10/05 03:35:56;;;;;;;53.27;13.23;;;7.80;99.90;;;;;;5081636;28;20212;-82
2022/10/05 03:39:08;;;;;;;66.00;19.37;;;7.80;99.90;;;;;;5075933;28;20220;-82
2022/10/05 03:41:46;;;;;;;51.77;23.90;;;7.80;99.90;;;;;;5114394;28;20183;-81
2022/10/05 03:44:30;;;;;;;36.47;32.17;;;7.80;99.90;;;;;;5095246;28;20211;-81
2022/10/05 03:47:02;;;;;;;20.87;15.00;;;7.80;99.90;;;;;;5094057;28;20383;-81
2022/10/05 03:49:56;;;;;;;35.37;14.13;;;7.70;99.90;;;;;;5077019;28;20212;-81
2022/10/05 03:52:37;;;;;;;29.97;11.20;;;7.70;99.90;;;;;;5096436;28;20200;-81
2022/10/05 03:55:21;;;;;;;35.63;20.20;;;7.60;99.90;;;;;;5077054;28;20188;-81
2022/10/05 03:57:50;;;;;;;27.63;24.67;;;7.50;99.90;;;;;;5076261;28;20200;-81
2022/10/05 04:00:21;;;;;;;20.13;18.43;;;7.40;99.90;;;;;;5074955;28;20551;-82
2022/10/05 04:03:15;;;;;;;46.40;42.80;;;7.20;99.90;;;;;;5076365;28;20239;-69
2022/10/05 04:05:44;;;;;;;20.13;12.43;;;7.10;99.90;;;;;;5091440;28;20541;-68
2022/10/05 04:08:35;;;;;;;29.03;19.33;;;7.10;99.90;;;;;;5116437;22;20231;-73
2022/10/05 04:11:08;;;;;;;50.90;9.87;;;7.00;99.90;;;;;;5131409;27;20263;-73
2022/10/05 04:13:40;;;;;;;33.43;30.20;;;7.00;99.90;;;;;;5130752;27;20182;-73
2022/10/05 04:16:14;;;;;;;41.10;38.27;;;7.00;99.90;;;;;;5131621;28;20248;-72
2022/10/05 04:18:44;;;;;;;77.87;30.53;;;7.00;99.90;;;;;;5127476;27;20199;-73
2022/10/05 04:21:19;;;;;;;31.10;22.27;;;7.10;99.90;;;;;;5111020;28;20176;-73
2022/10/05 04:24:08;;;;;;;35.07;31.27;;;7.20;99.90;;;;;;5111399;28;20176;-73
2022/10/05 04:26:36;;;;;;;38.87;34.87;;;7.20;99.90;;;;;;5111424;28;20321;-73
2022/10/05 04:29:32;;;;;;;86.03;35.20;;;7.30;99.90;;;;;;5110389;28;20199;-72
2022/10/05 04:32:26;;;;;;;83.47;38.37;;;7.30;99.90;;;;;;5111493;28;20585;-72
2022/10/05 04:35:03;;;;;;;45.40;40.57;;;7.40;99.90;;;;;;5111333;28;20585;-73
2022/10/05 04:37:34;;;;;;;44.73;24.23;;;7.40;99.90;;;;;;5111255;28;20173;-73
2022/10/05 04:40:21;;;;;;;67.10;26.33;;;7.40;99.90;;;;;;5111340;28;20809;-73
2022/10/05 04:43:23;;;;;;;78.80;31.47;;;7.50;99.90;;;;;;5111734;28;20187;-73
2022/10/05 04:46:13;;;;;;;63.40;34.63;;;7.50;99.90;;;;;;5115462;28;20262;-73
2022/10/05 04:49:04;;;;;;;53.10;40.93;;;7.50;99.90;;;;;;5113848;28;20249;-73
2022/10/05 04:51:39;;;;;;;48.03;42.40;;;7.40;99.90;;;;;;5115250;28;20250;-73
2022/10/05 04:54:23;;;;;;;74.73;51.57;;;7.40;99.90;;;;;;5114110;28;20183;-72
2022/10/05 04:56:57;;;;;;;55.07;33.90;;;7.40;99.90;;;;;;5114637;28;20179;-72
2022/10/05 04:59:54;;;;;;;58.00;34.90;;;7.40;99.90;;;;;;5130534;28;20313;-73
2022/10/05 05:02:38;;;;;;;73.37;40.43;;;7.40;99.90;;;;;;5114850;28;20184;-73
2022/10/05 05:05:50;;;;;;;53.50;48.27;;;7.40;99.90;;;;;;5113816;28;20196;-73
2022/10/05 05:08:45;;;;;;;37.97;23.27;;;7.40;99.90;;;;;;5082689;28;20584;-73
2022/10/05 05:11:49;;;;;;;26.93;14.13;;;7.40;99.90;;;;;;5102964;28;20188;-73
2022/10/05 05:14:25;;;;;;;16.37;9.47;;;7.40;99.90;;;;;;5114363;28;20688;-73
2022/10/05 05:17:22;;;;;;;13.17;8.20;;;7.30;99.90;;;;;;5114425;28;20251;-73
2022/10/05 05:20:30;;;;;;;36.47;8.57;;;7.30;99.90;;;;;;5082914;28;20216;-73
2022/10/05 05:23:11;;;;;;;23.73;9.63;;;7.30;99.90;;;;;;5114508;28;20659;-73
2022/10/05 05:25:47;;;;;;;28.07;7.83;;;7.30;99.90;;;;;;5114663;28;20180;-73
2022/10/05 05:28:13;;;;;;;27.53;12.53;;;7.20;99.90;;;;;;5114641;28;20196;-73
2022/10/05 05:30:45;;;;;;;23.57;7.93;;;7.20;99.90;;;;;;5113075;28;20181;-73
2022/10/05 05:33:17;;;;;;;20.87;9.33;;;7.20;99.90;;;;;;5114379;28;20641;-73
2022/10/05 05:36:02;;;;;;;15.97;8.17;;;7.20;99.90;;;;;;5114025;28;20219;-73
2022/10/05 05:38:43;;;;;;;27.20;8.47;;;7.20;99.90;;;;;;5112684;28;20230;-73
2022/10/05 05:41:29;;;;;;;29.80;9.00;;;7.20;99.90;;;;;;5114313;28;20229;-73
2022/10/05 05:44:22;;;;;;;15.90;11.03;;;7.20;99.90;;;;;;5113041;28;20235;-73
2022/10/05 05:47:23;;;;;;;30.77;15.03;;;7.20;99.90;;;;;;5112337;28;20702;-73
2022/10/05 05:50:03;;;;;;;20.03;18.17;;;7.20;99.90;;;;;;5089944;28;20204;-73
2022/10/05 05:52:45;;;;;;;77.87;73.40;;;7.20;99.90;;;;;;5112739;28;20176;-73
2022/10/05 05:55:49;;;;;;;47.67;44.77;;;7.10;99.90;;;;;;5113424;28;20204;-73
2022/10/05 05:58:22;;;;;;;21.83;19.70;;;7.10;99.90;;;;;;5089525;27;20204;-73
2022/10/05 06:01:17;;;;;;;24.47;22.37;;;7.10;99.90;;;;;;5113860;28;20177;-72
2022/10/05 06:03:56;;;;;;;23.83;21.00;;;7.20;99.90;;;;;;5112552;28;20169;-73
2022/10/05 06:06:30;;;;;;;38.00;8.00;;;7.30;99.90;;;;;;5113867;28;20641;-73
2022/10/05 06:09:02;;;;;;;17.63;16.00;;;7.30;99.90;;;;;;5111905;28;20224;-73
2022/10/05 06:11:43;;;;;;;15.23;12.37;;;7.40;99.90;;;;;;5113782;28;20190;-73
2022/10/05 06:14:47;;;;;;;12.73;11.40;;;7.40;99.90;;;;;;5113675;28;20191;-73
2022/10/05 06:17:27;;;;;;;20.77;16.63;;;7.50;99.90;;;;;;5112891;28;20221;-73
2022/10/05 06:19:56;;;;;;;15.30;10.43;;;7.60;99.90;;;;;;5112358;28;20228;-72
2022/10/05 06:22:25;;;;;;;9.90;8.60;;;7.60;99.90;;;;;;5112198;28;20200;-73
2022/10/05 06:25:34;;;;;;;20.70;19.03;;;7.70;99.90;;;;;;5113464;28;20177;-73
2022/10/05 06:28:14;;;;;;;30.40;28.30;;;7.80;99.90;;;;;;5073663;28;20188;-73
2022/10/05 06:31:05;;;;;;;24.57;22.90;;;7.90;99.90;;;;;;5112090;28;20285;-73
2022/10/05 06:34:18;;;;;;;33.37;30.17;;;8.00;99.90;;;;;;5111927;28;20199;-73
2022/10/05 06:36:57;;;;;;;21.03;18.90;;;8.20;99.90;;;;;;5049855;28;20197;-73
2022/10/05 06:39:44;;;;;;;26.37;18.80;;;8.30;99.90;;;;;;5050148;28;20205;-73
2022/10/05 06:42:42;;;;;;;30.43;25.53;;;8.50;99.90;;;;;;5098128;28;20318;-74
2022/10/05 06:45:29;;;;;;;14.40;13.17;;;8.60;99.90;;;;;;5099777;27;20221;-73
2022/10/05 06:48:25;;;;;;;33.63;24.57;;;8.70;99.90;;;;;;5116732;28;20180;-73
2022/10/05 06:50:59;;;;;;;28.27;20.30;;;8.80;99.90;;;;;;5113743;28;20209;-73
2022/10/05 06:54:02;;;;;;;23.87;20.70;;;9.00;99.90;;;;;;5112892;28;20241;-73
2022/10/05 06:56:35;;;;;;;29.37;22.43;;;9.10;99.90;;;;;;5112980;28;20180;-72
2022/10/05 06:59:25;;;;;;;31.67;11.67;;;9.40;99.90;;;;;;5112439;28;20227;-73
2022/10/05 07:02:07;;;;;;;16.60;13.87;;;9.70;99.90;;;;;;5111344;28;20180;-73
2022/10/05 07:04:46;;;;;;;29.70;19.67;;;9.90;99.90;;;;;;5112630;28;20187;-73
2022/10/05 07:07:38;;;;;;;60.60;57.17;;;10.20;99.90;;;;;;5112307;28;20724;-73
2022/10/05 07:10:46;;;;;;;13.33;12.50;;;10.70;99.90;;;;;;5112434;28;20223;-73
2022/10/05 07:13:25;;;;;;;30.47;28.43;;;11.00;99.90;;;;;;5078019;28;20188;-73
2022/10/05 07:16:22;;;;;;;29.27;27.70;;;11.30;99.90;;;;;;5111085;28;20218;-73
2022/10/05 07:19:12;;;;;;;15.80;14.80;;;11.70;99.90;;;;;;5086398;28;20216;-73
2022/10/05 07:21:59;;;;;;;10.33;9.63;;;12.30;99.90;;;;;;5111475;28;20212;-73
2022/10/05 07:24:31;;;;;;;9.93;9.07;;;12.60;99.90;;;;;;5112336;28;20233;-73
2022/10/05 07:27:13;;;;;;;9.33;8.63;;;12.80;99.90;;;;;;5111874;28;20779;-73
2022/10/05 07:30:03;;;;;;;8.53;7.93;;;13.50;99.90;;;;;;5112105;28;20295;-73
2022/10/05 07:32:54;;;;;;;8.43;7.83;;;13.90;99.90;;;;;;5111056;28;20661;-73
2022/10/05 07:38:36;;;;;;;12.20;11.47;;;14.30;99.90;;;;;;5111781;28;20627;-73
2022/10/05 07:41:24;;;;;;;7.23;6.73;;;14.50;99.90;;;;;;5112034;28;20173;-73
2022/10/05 07:44:06;;;;;;;9.83;9.13;;;14.70;99.90;;;;;;5111453;28;20568;-73
2022/10/05 07:47:00;;;;;;;7.13;6.73;;;14.90;99.90;;;;;;5111986;28;20207;-73
2022/10/05 07:49:44;;;;;;;12.77;12.10;;;15.30;99.90;;;;;;5111978;28;20615;-74
2022/10/05 07:52:22;;;;;;;12.33;11.67;;;15.50;99.90;;;;;;5111877;28;20173;-73
2022/10/05 07:55:00;;;;;;;12.47;11.77;;;15.50;99.90;;;;;;5111730;28;20211;-73
2022/10/05 07:57:47;;;;;;;10.57;9.97;;;15.60;99.90;;;;;;5111392;28;20207;-73
2022/10/05 08:00:26;;;;;;;10.77;10.00;;;15.40;99.90;;;;;;5111804;28;20641;-73
2022/10/05 08:03:13;;;;;;;11.83;11.13;;;15.20;99.90;;;;;;5111867;28;20184;-74
2022/10/05 08:05:45;;;;;;;11.00;10.20;;;15.00;99.90;;;;;;5112458;28;20179;-73
2022/10/05 08:08:28;;;;;;;10.40;9.80;;;15.20;99.90;;;;;;5110000;28;20204;-74
2022/10/05 08:11:00;;;;;;;10.53;9.97;;;15.20;99.90;;;;;;5111660;28;20229;-73
2022/10/05 08:13:59;;;;;;;10.70;10.00;;;15.20;99.90;;;;;;5112019;28;20184;-73
2022/10/05 08:16:31;;;;;;;9.57;8.97;;;15.30;99.90;;;;;;5110252;28;20207;-73
2022/10/05 08:19:18;;;;;;;8.40;7.80;;;15.20;99.90;;;;;;5110569;28;20203;-73
2022/10/05 08:21:58;;;;;;;7.50;6.90;;;15.20;99.90;;;;;;5111748;28;20176;-73
2022/10/05 08:24:40;;;;;;;6.43;5.80;;;15.20;99.90;;;;;;5111749;28;20221;-73
2022/10/05 08:27:13;;;;;;;10.80;6.63;;;15.20;99.90;;;;;;5110222;28;20187;-73
2022/10/05 08:29:57;;;;;;;7.27;6.70;;;15.30;99.90;;;;;;5110418;28;20192;-74
2022/10/05 08:32:41;;;;;;;6.90;6.30;;;15.50;99.90;;;;;;5115880;28;20213;-73
2022/10/05 08:35:38;;;;;;;8.50;7.70;;;15.60;99.90;;;;;;5113250;28;20208;-73
2022/10/05 08:38:17;;;;;;;8.97;8.17;;;15.80;99.90;;;;;;5105758;28;20196;-73
2022/10/05 08:41:01;;;;;;;9.70;8.77;;;15.90;99.90;;;;;;5110369;28;20183;-73
2022/10/05 08:43:36;;;;;;;10.73;9.93;;;15.90;99.90;;;;;;5111444;28;20184;-74
2022/10/05 08:46:13;;;;;;;13.00;11.73;;;15.90;99.90;;;;;;5111237;28;20644;-73
2022/10/05 08:49:20;;;;;;;12.63;11.53;;;16.20;99.90;;;;;;5109582;28;20200;-73
2022/10/05 08:52:03;;;;;;;14.20;12.77;;;16.50;99.90;;;;;;5111654;28;20180;-73
2022/10/05 08:54:34;;;;;;;10.50;9.50;;;16.90;99.90;;;;;;5111325;28;20216;-74
2022/10/05 08:57:06;;;;;;;9.70;8.90;;;17.10;99.90;;;;;;5109818;28;20666;-74
2022/10/05 08:59:59;;;;;;;10.53;9.63;;;17.50;99.90;;;;;;5111182;28;20283;-74
2022/10/05 09:02:27;;;;;;;11.93;11.20;;;17.70;99.90;;;;;;5111107;28;20180;-74
2022/10/05 09:05:18;;;;;;;18.90;17.47;;;18.10;99.90;;;;;;5109945;28;20180;-74
2022/10/05 09:08:08;;;;;;;21.40;19.97;;;18.20;99.90;;;;;;5110792;28;20181;-74
2022/10/05 09:10:56;;;;;;;35.53;33.27;;;18.20;99.90;;;;;;5111189;28;20660;-73
2022/10/05 09:13:59;;;;;;;48.67;46.07;;;18.30;99.90;;;;;;5111180;28;20172;-73
2022/10/05 09:16:46;;;;;;;70.00;66.07;;;18.80;99.90;;;;;;5111101;28;20207;-74
2022/10/05 09:19:38;;;;;;;75.00;71.20;;;19.00;99.90;;;;;;5110982;28;20234;-73
2022/10/05 09:22:39;;;;;;;59.70;56.37;;;19.30;99.90;;;;;;5111145;28;20176;-73
2022/10/05 09:25:21;;;;;;;55.90;52.53;;;19.90;99.90;;;;;;5109764;28;20176;-73
2022/10/05 09:28:24;;;;;;;36.83;34.73;;;20.20;99.90;;;;;;5110734;28;20180;-73
2022/10/05 09:31:20;;;;;;;35.93;33.70;;;20.60;99.90;;;;;;5113034;28;20180;-73
2022/10/05 09:34:10;;;;;;;13.47;12.57;;;21.20;99.90;;;;;;5114574;28;20256;-74
2022/10/05 09:36:53;;;;;;;11.53;10.73;;;21.50;99.90;;;;;;5114751;28;20717;-74
2022/10/05 09:39:34;;;;;;;11.60;10.60;;;21.90;99.90;;;;;;5113416;28;20201;-74
2022/10/05 09:42:25;;;;;;;9.40;8.80;;;22.20;99.90;;;;;;5114314;28;20631;-74
2022/10/05 09:45:28;;;;;;;19.43;17.93;;;22.50;99.90;;;;;;5114359;28;20185;-74
2022/10/05 09:48:16;;;;;;;22.75;21.52;;;23.10;99.90;;;;;;5114023;28;20469;-73
2022/10/05 09:51:05;;;;;;;24.95;23.52;;;23.00;99.90;;;;;;5113417;28;20188;-73
2022/10/05 09:53:46;;;;;;;28.42;26.90;;;23.50;99.90;;;;;;5114112;28;20181;-73
2022/10/05 09:57:05;;;;;;;13.35;12.30;;;23.70;99.90;;;;;;5114164;28;20253;-73
2022/10/05 09:59:42;;;;;;;16.27;15.10;;;23.80;99.90;;;;;;5069180;28;20231;-73
2022/10/05 10:02:19;;;;;;;11.82;10.88;;;23.60;99.90;;;;;;5114047;28;20179;-73
2022/10/05 10:05:18;;;;;;;8.38;7.68;;;23.60;99.90;;;;;;5114033;28;20183;-73
2022/10/05 10:08:03;;;;;;;9.43;8.70;;;24.00;99.90;;;;;;5112648;28;20188;-74
2022/10/05 10:10:56;;;;;;;7.18;6.47;;;24.10;99.90;;;;;;5098949;22;20232;-73
2022/10/05 10:13:40;;;;;;;6.97;6.45;;;24.50;99.90;;;;;;5072072;28;20227;-73
2022/10/05 10:16:12;;;;;;;5.85;5.38;;;24.40;99.90;;;;;;5071891;28;20213;-72
2022/10/05 10:18:41;;;;;;;6.95;6.35;;;24.60;99.90;;;;;;5072675;28;20622;-72
2022/10/05 10:21:36;;;;;;;7.03;6.43;;;24.80;99.90;;;;;;5073281;28;20177;-73
2022/10/05 10:24:18;;;;;;;7.28;5.40;;;24.80;99.90;;;;;;5071588;28;20185;-72
2022/10/05 10:27:05;;;;;;;6.25;5.63;;;25.20;99.90;;;;;;5072825;28;20672;-71
2022/10/05 10:30:02;;;;;;;6.47;6.15;;;25.70;99.60;;;;;;5072854;28;20574;-72
2022/10/05 10:32:53;;;;;;;4.30;4.10;;;26.50;98.30;;;;;;5078675;28;20193;-72
2022/10/05 10:35:34;;;;;;;7.00;6.55;;;27.20;96.90;;;;;;5072758;28;20197;-72
2022/10/05 10:38:22;;;;;;;6.45;5.00;;;27.30;95.80;;;;;;5072385;28;20181;-72
2022/10/05 10:40:59;;;;;;;7.18;6.50;;;28.60;93.20;;;;;;5072270;28;20178;-71
2022/10/05 10:44:02;;;;;;;8.70;8.23;;;28.50;92.30;;;;;;5072632;28;20184;-72
2022/10/05 10:46:43;;;;;;;8.77;8.15;;;28.20;92.60;;;;;;5071656;28;20447;-73
2022/10/05 10:49:30;;;;;;;9.88;9.38;;;27.70;93.20;;;;;;5071096;28;20236;-73
2022/10/05 10:52:22;;;;;;;12.27;11.60;;;27.90;93.40;;;;;;5072552;28;20216;-73
2022/10/05 10:55:25;;;;;;;38.80;36.83;;;27.80;94.00;;;;;;5069288;28;20221;-72
2022/10/05 10:57:56;;;;;;;62.25;59.17;;;28.50;91.00;;;;;;5071990;28;20185;-73
2022/10/05 11:00:41;;;;;;;77.32;73.40;;;28.40;90.10;;;;;;5072381;28;20295;-73
2022/10/05 11:03:30;;;;;;;87.03;82.63;;;28.70;89.10;;;;;;5071077;28;20558;-73
2022/10/05 11:06:06;;;;;;;89.20;84.78;;;28.40;88.90;;;;;;5050094;28;20190;-73
2022/10/05 11:08:45;;;;;;;95.55;90.95;;;28.70;89.60;;;;;;5071662;28;20268;-72
2022/10/05 11:11:49;;;;;;;66.65;63.35;;;28.40;90.50;;;;;;5071961;28;20178;-73
2022/10/05 11:14:35;;;;;;;75.68;71.85;;;28.50;90.70;;;;;;5070649;28;20188;-73
2022/10/05 11:17:09;;;;;;;43.10;40.90;;;28.90;90.30;;;;;;5070298;28;20181;-72
2022/10/05 11:20:02;;;;;;;55.78;52.85;;;29.80;85.90;;;;;;5071766;28;20568;-73
2022/10/05 11:23:02;;;;;;;62.60;59.38;;;29.80;86.70;;;;;;5070620;28;20546;-72
2022/10/05 11:25:37;;;;;;;56.85;53.83;;;28.90;87.50;;;;;;5071719;28;20182;-72
2022/10/05 11:28:33;;;;;;;73.55;69.82;;;28.60;87.70;;;;;;5070385;28;20559;-73
2022/10/05 11:31:29;;;;;;;74.85;70.97;;;28.60;87.90;;;;;;5071854;28;20563;-73
2022/10/05 11:34:33;;;;;;;37.22;35.33;;;29.40;86.60;;;;;;5071741;28;20272;-73
2022/10/05 11:37:39;;;;;;;26.77;25.48;;;30.20;82.40;;;;;;5071806;28;20185;-73
2022/10/05 11:40:35;;;;;;;16.13;15.18;;;30.10;80.70;;;;;;5070177;28;20275;-72
2022/10/05 11:43:22;;;;;;;8.77;8.27;;;30.60;79.30;;;;;;5071502;28;20186;-73
2022/10/05 11:46:16;;;;;;;7.20;6.68;;;30.60;76.00;;;;;;5071462;28;20182;-72
2022/10/05 11:49:07;;;;;;;5.28;4.45;;;30.90;76.40;;;;;;5070947;28;20217;-71
2022/10/05 11:51:42;;;;;;;6.47;6.07;;;31.30;74.40;;;;;;5070522;28;20650;-72
2022/10/05 11:54:42;;;;;;;5.30;4.90;;;31.50;72.10;;;;;;5070690;28;20216;-73
2022/10/05 11:57:16;;;;;;;4.72;4.53;;;31.90;73.40;;;;;;5071353;28;20189;-73
2022/10/05 12:00:05;;;;;;;4.25;4.00;;;32.50;71.60;;;;;;5070149;28;20255;-73
2022/10/05 12:03:08;;;;;;;4.57;4.18;;;32.50;70.00;;;;;;5073702;28;20208;-72
2022/10/05 12:06:01;;;;;;;4.47;4.18;;;32.30;69.60;;;;;;5072803;28;20181;-73
2022/10/05 12:08:48;;;;;;;4.50;4.28;;;32.20;70.70;;;;;;5071303;28;20650;-72
2022/10/05 12:11:43;;;;;;;9.45;9.05;;;32.10;70.20;;;;;;5071216;28;20204;-72
2022/10/05 12:14:11;;;;;;;7.85;7.45;;;31.80;69.70;;;;;;5071259;28;20193;-73
2022/10/05 12:16:48;;;;;;;8.68;8.27;;;32.60;69.00;;;;;;5070002;28;20209;-73
2022/10/05 12:19:33;;;;;;;4.35;4.05;;;33.20;68.70;;;;;;5071154;28;20669;-73
2022/10/05 12:22:21;;;;;;;7.28;6.85;;;32.50;67.40;;;;;;5069882;28;20580;-72
2022/10/05 12:25:00;;;;;;;7.03;6.53;;;32.60;67.70;;;;;;5071118;28;20181;-72
2022/10/05 12:27:32;;;;;;;7.30;6.55;;;32.80;66.50;;;;;;5070531;28;20722;-72
2022/10/05 12:30:07;;;;;;;10.55;9.95;;;32.40;66.70;;;;;;5070004;28;20606;-72
2022/10/05 12:32:36;;;;;;;6.35;6.05;;;32.70;68.80;;;;;;5070933;28;20185;-73
2022/10/05 12:35:17;;;;;;;7.95;7.55;;;32.50;66.00;;;;;;5070859;28;20636;-72
2022/10/05 12:37:57;;;;;;;4.82;4.07;;;32.70;66.40;;;;;;5070520;28;20169;-73
2022/10/05 12:40:31;;;;;;;4.80;4.40;;;33.20;64.50;;;;;;5069559;28;20610;-72
2022/10/05 12:43:03;;;;;;;4.97;4.55;;;32.10;65.60;;;;;;5069564;28;20299;-72
2022/10/05 12:45:35;;;;;;;9.13;8.73;;;32.10;67.50;;;;;;5070923;28;20654;-73
2022/10/05 12:48:39;;;;;;;8.23;7.63;;;32.00;66.10;;;;;;5070505;28;20276;-73
2022/10/05 12:51:14;;;;;;;7.82;7.32;;;32.10;69.30;;;;;;5070739;28;20199;-72
2022/10/05 12:54:21;;;;;;;5.07;4.88;;;32.20;66.30;;;;;;5070744;28;20187;-72
2022/10/05 12:57:15;;;;;;;7.22;6.82;;;32.30;67.30;;;;;;5065068;28;20201;-72
2022/10/05 12:59:52;;;;;;;8.45;8.05;;;32.30;67.80;;;;;;5069259;28;20201;-73
2022/10/05 13:02:32;;;;;;;11.23;10.45;;;32.00;67.80;;;;;;5070528;28;20253;-73
2022/10/05 13:05:07;;;;;;;6.35;5.95;;;32.30;66.10;;;;;;5072966;28;20268;-73
2022/10/05 13:07:43;;;;;;;8.77;7.00;;;31.20;65.60;;;;;;5074340;28;20209;-73
2022/10/05 13:10:31;;;;;;;8.30;7.65;;;31.30;67.70;;;;;;5073315;28;20216;-73
2022/10/05 13:13:12;;;;;;;6.60;6.28;;;31.20;70.20;;;;;;5074331;28;20205;-72
2022/10/05 13:16:03;;;;;;;6.22;5.93;;;30.90;67.50;;;;;;5074067;28;20201;-72
2022/10/05 13:18:57;;;;;;;4.35;4.15;;;30.70;68.00;;;;;;5072493;28;20181;-72
2022/10/05 13:21:46;;;;;;;4.65;4.45;;;30.60;67.70;;;;;;5074196;28;20256;-72
2022/10/05 13:24:36;;;;;;;5.45;5.05;;;31.20;67.10;;;;;;5074146;28;20252;-72
2022/10/05 13:27:17;;;;;;;4.78;4.35;;;30.30;67.40;;;;;;5073749;28;20432;-72
2022/10/05 13:29:57;;;;;;;4.30;3.97;;;30.30;70.70;;;;;;5072793;28;20689;-72
2022/10/05 13:32:28;;;;;;;5.38;4.85;;;30.00;71.20;;;;;;5072749;28;20186;-72
2022/10/05 13:34:58;;;;;;;5.25;4.95;;;29.60;72.40;;;;;;5073903;28;20205;-72
2022/10/05 13:37:45;;;;;;;6.38;4.68;;;29.00;72.50;;;;;;5073504;28;20189;-71
2022/10/05 13:40:34;;;;;;;9.40;7.25;;;28.20;75.10;;;;;;5073880;28;20710;-71
2022/10/05 13:43:20;;;;;;;9.80;8.95;;;27.40;77.50;;;;;;5074031;28;20200;-72
2022/10/05 13:46:09;;;;;;;12.75;12.15;;;27.10;77.50;;;;;;5073911;28;20351;-72
2022/10/05 13:49:03;;;;;;;16.88;16.05;;;26.70;78.60;;;;;;5072066;28;20186;-73
2022/10/05 13:52:05;;;;;;;26.60;25.20;;;26.30;80.60;;;;;;5072532;28;20182;-73
2022/10/05 13:54:36;;;;;;;26.60;25.30;;;26.00;82.00;;;;;;5073542;28;20192;-73
2022/10/05 13:57:33;;;;;;;37.22;35.35;;;26.00;82.50;;;;;;5073267;28;20619;-72
2022/10/05 14:00:12;;;;;;;61.00;58.10;;;25.90;82.80;;;;;;5074708;28;20621;-72
2022/10/05 14:02:40;;;;;;;97.45;92.47;;;25.60;83.60;;;;;;5073568;28;20538;-73
2022/10/05 14:05:21;;;;;;;100.50;94.35;;;25.50;84.90;;;;;;5073688;28;20177;-72
2022/10/05 14:07:57;;;;;;;96.95;92.05;;;25.40;84.60;;;;;;5072997;28;20185;-72